Terminal Aerodrome Forecast
Issued by NWS Northern Indiana

Home | Current Version | Previous Version | Text Only | Print | Product List | Glossary Off
Versions: 1 2 3 4 5 6 7 8 9 10 11 12 13 14 15

000
FTUS43 KIWX 271720
TAFFWA
TAF
KFWA 271720Z 2718/2818 VRB05KT P6SM SCT015 BKN120
      TEMPO 2718/2720 BKN015
     FM272300 12005KT P6SM VCSH OVC040
     FM280200 06006KT 4SM SHRA VCTS OVC020CB
     FM280600 02007KT P6SM OVC008=

USA.gov is the U.S. government's official web portal to all federal, state and local government web resources and services.